sensor_id;sensor_type;location;lat;lon;timestamp;pressure;altitude;pressure_sealevel;temperature;humidity
78121;BME280;67585;44.802;10.332;2023-03-26T00:02:08;100542.78;;;16.26;39.43
78121;BME280;67585;44.802;10.332;2023-03-26T00:04:33;100555.56;;;14.92;43.87
78121;BME280;67585;44.802;10.332;2023-03-26T00:06:59;100566.41;;;15.16;45.39
78121;BME280;67585;44.802;10.332;2023-03-26T00:09:25;100548.38;;;15.26;46.04
78121;BME280;67585;44.802;10.332;2023-03-26T00:11:50;100565.28;;;14.74;50.32
78121;BME280;67585;44.802;10.332;2023-03-26T00:14:16;100557.78;;;14.32;53.26
78121;BME280;67585;44.802;10.332;2023-03-26T00:16:42;100575.34;;;13.76;56.23
78121;BME280;67585;44.802;10.332;2023-03-26T00:19:09;100558.56;;;14.38;54.63
78121;BME280;67585;44.802;10.332;2023-03-26T00:21:35;100572.63;;;14.10;54.94
78121;BME280;67585;44.802;10.332;2023-03-26T00:24:06;100569.00;;;13.91;55.92
78121;BME280;67585;44.802;10.332;2023-03-26T00:26:33;100568.28;;;14.09;55.18
78121;BME280;67585;44.802;10.332;2023-03-26T00:28:59;100555.22;;;14.46;54.44
78121;BME280;67585;44.802;10.332;2023-03-26T00:31:27;100565.28;;;14.45;54.47
78121;BME280;67585;44.802;10.332;2023-03-26T00:33:53;100572.53;;;14.50;54.51
78121;BME280;67585;44.802;10.332;2023-03-26T00:36:20;100569.00;;;14.25;54.49
78121;BME280;67585;44.802;10.332;2023-03-26T00:38:46;100573.78;;;14.33;55.65
78121;BME280;67585;44.802;10.332;2023-03-26T00:41:16;100585.56;;;13.84;57.45
78121;BME280;67585;44.802;10.332;2023-03-26T00:43:43;100582.19;;;14.32;56.37
78121;BME280;67585;44.802;10.332;2023-03-26T00:46:10;100566.06;;;14.46;55.84
78121;BME280;67585;44.802;10.332;2023-03-26T00:48:36;100569.56;;;14.17;57.07
78121;BME280;67585;44.802;10.332;2023-03-26T00:51:03;100560.16;;;14.09;57.63
78121;BME280;67585;44.802;10.332;2023-03-26T00:53:28;100563.84;;;14.24;57.57
78121;BME280;67585;44.802;10.332;2023-03-26T00:55:54;100558.69;;;14.22;57.11
78121;BME280;67585;44.802;10.332;2023-03-26T00:58:24;100546.88;;;14.13;58.04
78121;BME280;67585;44.802;10.332;2023-03-26T01:00:55;100550.50;;;14.62;56.77
78121;BME280;67585;44.802;10.332;2023-03-26T01:03:26;100559.03;;;14.16;58.43
78121;BME280;67585;44.802;10.332;2023-03-26T01:05:59;100565.16;;;14.26;59.22
78121;BME280;67585;44.802;10.332;2023-03-26T01:08:44;100557.78;;;14.37;58.96
78121;BME280;67585;44.802;10.332;2023-03-26T01:11:20;100555.31;;;14.06;59.31
78121;BME280;67585;44.802;10.332;2023-03-26T01:13:51;100552.69;;;13.62;61.48
78121;BME280;67585;44.802;10.332;2023-03-26T01:16:27;100545.75;;;13.85;60.66
78121;BME280;67585;44.802;10.332;2023-03-26T01:18:55;100553.16;;;14.08;60.08
78121;BME280;67585;44.802;10.332;2023-03-26T01:21:24;100544.97;;;14.14;60.72
78121;BME280;67585;44.802;10.332;2023-03-26T01:24:07;100534.25;;;13.64;62.19
78121;BME280;67585;44.802;10.332;2023-03-26T01:37:37;100543.69;;;14.06;60.37
78121;BME280;67585;44.802;10.332;2023-03-26T01:40:25;100546.09;;;13.73;62.04
78121;BME280;67585;44.802;10.332;2023-03-26T01:43:02;100529.63;;;14.04;60.22
78121;BME280;67585;44.802;10.332;2023-03-26T01:45:34;100526.38;;;14.31;60.42
78121;BME280;67585;44.802;10.332;2023-03-26T01:48:01;100516.22;;;13.88;61.22
78121;BME280;67585;44.802;10.332;2023-03-26T01:50:27;100520.88;;;14.12;60.36
78121;BME280;67585;44.802;10.332;2023-03-26T01:52:52;100503.81;;;14.11;60.32
78121;BME280;67585;44.802;10.332;2023-03-26T01:55:18;100509.13;;;14.22;60.31
78121;BME280;67585;44.802;10.332;2023-03-26T01:58:01;100503.50;;;14.18;59.90
78121;BME280;67585;44.802;10.332;2023-03-26T02:00:33;100508.19;;;13.73;61.70
78121;BME280;67585;44.802;10.332;2023-03-26T02:03:26;100508.63;;;13.85;62.13
78121;BME280;67585;44.802;10.332;2023-03-26T02:08:51;100509.78;;;13.79;62.20
78121;BME280;67585;44.802;10.332;2023-03-26T02:11:18;100508.69;;;13.80;62.25
78121;BME280;67585;44.802;10.332;2023-03-26T02:13:44;100514.59;;;13.48;63.33
78121;BME280;67585;44.802;10.332;2023-03-26T02:16:13;100504.84;;;13.52;62.83
78121;BME280;67585;44.802;10.332;2023-03-26T02:18:41;100512.69;;;13.49;63.12
78121;BME280;67585;44.802;10.332;2023-03-26T02:21:15;100524.75;;;13.66;63.07
78121;BME280;67585;44.802;10.332;2023-03-26T02:23:45;100513.06;;;13.76;62.95
78121;BME280;67585;44.802;10.332;2023-03-26T02:26:18;100508.50;;;13.66;62.51
78121;BME280;67585;44.802;10.332;2023-03-26T02:28:44;100495.50;;;13.68;62.65
78121;BME280;67585;44.802;10.332;2023-03-26T02:31:09;100485.66;;;13.83;61.33
78121;BME280;67585;44.802;10.332;2023-03-26T02:33:38;100487.31;;;13.39;63.28
78121;BME280;67585;44.802;10.332;2023-03-26T02:36:04;100489.53;;;13.72;62.04
78121;BME280;67585;44.802;10.332;2023-03-26T02:38:31;100498.47;;;13.33;63.27
78121;BME280;67585;44.802;10.332;2023-03-26T02:41:00;100495.00;;;13.17;64.57
78121;BME280;67585;44.802;10.332;2023-03-26T02:43:26;100497.59;;;13.42;64.17
78121;BME280;67585;44.802;10.332;2023-03-26T02:45:52;100499.47;;;13.42;63.91
78121;BME280;67585;44.802;10.332;2023-03-26T02:48:17;100493.88;;;12.73;66.31
78121;BME280;67585;44.802;10.332;2023-03-26T02:50:43;100503.81;;;12.83;65.51
78121;BME280;67585;44.802;10.332;2023-03-26T02:53:08;100486.03;;;12.72;66.06
78121;BME280;67585;44.802;10.332;2023-03-26T02:55:34;100492.09;;;12.33;67.61
78121;BME280;67585;44.802;10.332;2023-03-26T02:58:00;100489.13;;;12.34;68.12
78121;BME280;67585;44.802;10.332;2023-03-26T03:00:25;100496.88;;;12.61;66.58
78121;BME280;67585;44.802;10.332;2023-03-26T03:02:51;100492.78;;;12.74;65.44
78121;BME280;67585;44.802;10.332;2023-03-26T03:05:18;100489.44;;;11.87;68.44
78121;BME280;67585;44.802;10.332;2023-03-26T03:07:47;100500.94;;;12.59;65.95
78121;BME280;67585;44.802;10.332;2023-03-26T03:10:13;100495.25;;;12.66;65.33
78121;BME280;67585;44.802;10.332;2023-03-26T03:12:40;100495.84;;;12.47;66.25
78121;BME280;67585;44.802;10.332;2023-03-26T03:15:06;100497.16;;;12.65;65.43
78121;BME280;67585;44.802;10.332;2023-03-26T03:17:32;100501.47;;;12.66;65.20
78121;BME280;67585;44.802;10.332;2023-03-26T03:19:57;100492.63;;;12.30;66.34
78121;BME280;67585;44.802;10.332;2023-03-26T03:22:23;100500.16;;;12.53;65.81
78121;BME280;67585;44.802;10.332;2023-03-26T03:24:48;100495.28;;;12.55;64.92
78121;BME280;67585;44.802;10.332;2023-03-26T03:27:16;100491.31;;;12.97;63.91
78121;BME280;67585;44.802;10.332;2023-03-26T03:29:43;100480.84;;;12.86;63.49
78121;BME280;67585;44.802;10.332;2023-03-26T03:32:09;100482.13;;;12.98;62.81
78121;BME280;67585;44.802;10.332;2023-03-26T03:34:34;100489.19;;;12.94;63.48
78121;BME280;67585;44.802;10.332;2023-03-26T03:37:03;100491.34;;;12.92;63.19
78121;BME280;67585;44.802;10.332;2023-03-26T03:39:28;100500.63;;;12.71;64.09
78121;BME280;67585;44.802;10.332;2023-03-26T03:41:54;100494.59;;;12.94;63.82
78121;BME280;67585;44.802;10.332;2023-03-26T03:44:19;100490.28;;;12.88;63.79
78121;BME280;67585;44.802;10.332;2023-03-26T03:46:45;100495.50;;;12.69;64.96
78121;BME280;67585;44.802;10.332;2023-03-26T03:49:10;100496.19;;;12.10;66.92
78121;BME280;67585;44.802;10.332;2023-03-26T03:51:35;100505.28;;;12.50;65.40
78121;BME280;67585;44.802;10.332;2023-03-26T03:54:01;100490.78;;;11.69;68.15
78121;BME280;67585;44.802;10.332;2023-03-26T03:56:27;100502.13;;;12.07;67.30
78121;BME280;67585;44.802;10.332;2023-03-26T03:58:53;100501.59;;;12.05;66.99
78121;BME280;67585;44.802;10.332;2023-03-26T04:01:18;100508.59;;;12.06;67.43
78121;BME280;67585;44.802;10.332;2023-03-26T04:03:47;100496.13;;;12.35;65.93
78121;BME280;67585;44.802;10.332;2023-03-26T04:06:12;100509.81;;;12.75;64.53
78121;BME280;67585;44.802;10.332;2023-03-26T04:08:38;100497.34;;;12.84;63.99
78121;BME280;67585;44.802;10.332;2023-03-26T04:11:03;100495.34;;;13.05;63.97
78121;BME280;67585;44.802;10.332;2023-03-26T04:13:29;100484.72;;;13.19;63.25
78121;BME280;67585;44.802;10.332;2023-03-26T04:15:55;100475.81;;;13.18;63.02
78121;BME280;67585;44.802;10.332;2023-03-26T04:18:21;100475.00;;;13.13;63.49
78121;BME280;67585;44.802;10.332;2023-03-26T04:20:47;100482.97;;;12.94;63.65
78121;BME280;67585;44.802;10.332;2023-03-26T04:23:17;100479.50;;;12.83;64.41
78121;BME280;67585;44.802;10.332;2023-03-26T04:25:49;100487.50;;;12.38;66.86
78121;BME280;67585;44.802;10.332;2023-03-26T04:28:38;100474.31;;;12.11;67.27
78121;BME280;67585;44.802;10.332;2023-03-26T04:31:08;100476.84;;;12.73;65.32
78121;BME280;67585;44.802;10.332;2023-03-26T04:33:36;100473.19;;;13.03;64.39
78121;BME280;67585;44.802;10.332;2023-03-26T04:36:03;100475.19;;;12.82;65.65
78121;BME280;67585;44.802;10.332;2023-03-26T04:38:30;100478.88;;;13.01;64.32
78121;BME280;67585;44.802;10.332;2023-03-26T04:41:01;100470.59;;;12.77;65.50
78121;BME280;67585;44.802;10.332;2023-03-26T04:43:26;100460.56;;;12.83;64.40
78121;BME280;67585;44.802;10.332;2023-03-26T04:45:53;100469.06;;;13.16;64.00
78121;BME280;67585;44.802;10.332;2023-03-26T04:48:18;100455.06;;;13.48;62.13
78121;BME280;67585;44.802;10.332;2023-03-26T04:50:45;100464.75;;;12.55;65.23
78121;BME280;67585;44.802;10.332;2023-03-26T04:53:14;100459.56;;;12.64;65.31
78121;BME280;67585;44.802;10.332;2023-03-26T04:56:05;100461.06;;;12.90;65.36
78121;BME280;67585;44.802;10.332;2023-03-26T04:58:34;100457.50;;;13.00;63.95
78121;BME280;67585;44.802;10.332;2023-03-26T05:01:00;100466.28;;;12.76;65.08
78121;BME280;67585;44.802;10.332;2023-03-26T05:03:28;100474.22;;;12.57;66.35
78121;BME280;67585;44.802;10.332;2023-03-26T05:05:57;100474.44;;;12.61;66.60
78121;BME280;67585;44.802;10.332;2023-03-26T05:08:23;100475.13;;;12.07;67.68
78121;BME280;67585;44.802;10.332;2023-03-26T05:10:49;100463.78;;;11.84;67.59
78121;BME280;67585;44.802;10.332;2023-03-26T05:13:14;100466.22;;;11.96;67.07
78121;BME280;67585;44.802;10.332;2023-03-26T05:15:40;100459.47;;;11.47;67.47
78121;BME280;67585;44.802;10.332;2023-03-26T05:18:05;100472.13;;;11.62;66.10
78121;BME280;67585;44.802;10.332;2023-03-26T05:20:32;100480.78;;;11.33;65.82
78121;BME280;67585;44.802;10.332;2023-03-26T05:22:58;100482.38;;;11.45;65.08
78121;BME280;67585;44.802;10.332;2023-03-26T05:25:23;100471.09;;;11.53;64.66
78121;BME280;67585;44.802;10.332;2023-03-26T05:27:49;100467.00;;;11.40;65.50
78121;BME280;67585;44.802;10.332;2023-03-26T05:30:17;100469.19;;;11.59;63.18
78121;BME280;67585;44.802;10.332;2023-03-26T05:32:43;100474.59;;;11.64;61.75
78121;BME280;67585;44.802;10.332;2023-03-26T05:35:09;100461.84;;;11.18;62.89
78121;BME280;67585;44.802;10.332;2023-03-26T05:37:34;100475.38;;;11.59;61.74
78121;BME280;67585;44.802;10.332;2023-03-26T05:40:04;100465.69;;;11.53;59.80
78121;BME280;67585;44.802;10.332;2023-03-26T05:42:33;100472.94;;;11.42;59.82
78121;BME280;67585;44.802;10.332;2023-03-26T05:44:59;100482.63;;;12.30;63.80
78121;BME280;67585;44.802;10.332;2023-03-26T05:47:25;100475.97;;;14.06;53.84
78121;BME280;67585;44.802;10.332;2023-03-26T05:49:51;100484.81;;;12.28;56.39
78121;BME280;67585;44.802;10.332;2023-03-26T05:52:17;100474.56;;;11.79;56.96
78121;BME280;67585;44.802;10.332;2023-03-26T05:54:43;100472.16;;;12.08;57.23
78121;BME280;67585;44.802;10.332;2023-03-26T05:57:08;100468.63;;;11.57;59.15
78121;BME280;67585;44.802;10.332;2023-03-26T05:59:34;100481.63;;;11.75;59.43
78121;BME280;67585;44.802;10.332;2023-03-26T06:02:00;100481.59;;;11.54;61.40
78121;BME280;67585;44.802;10.332;2023-03-26T06:04:26;100472.97;;;11.63;61.18
78121;BME280;67585;44.802;10.332;2023-03-26T06:06:52;100465.13;;;12.17;59.70
78121;BME280;67585;44.802;10.332;2023-03-26T06:09:18;100455.09;;;12.33;59.41
78121;BME280;67585;44.802;10.332;2023-03-26T06:11:44;100467.75;;;12.48;59.54
78121;BME280;67585;44.802;10.332;2023-03-26T06:14:09;100464.00;;;12.39;59.30
78121;BME280;67585;44.802;10.332;2023-03-26T06:16:35;100462.81;;;12.66;58.77
78121;BME280;67585;44.802;10.332;2023-03-26T06:19:00;100456.47;;;12.21;61.80
78121;BME280;67585;44.802;10.332;2023-03-26T06:21:26;100448.69;;;12.79;60.01
78121;BME280;67585;44.802;10.332;2023-03-26T06:23:52;100445.81;;;12.60;60.65
78121;BME280;67585;44.802;10.332;2023-03-26T06:26:18;100438.75;;;12.74;60.15
78121;BME280;67585;44.802;10.332;2023-03-26T06:28:44;100437.47;;;12.51;61.42
78121;BME280;67585;44.802;10.332;2023-03-26T06:31:09;100429.97;;;12.28;61.82
78121;BME280;67585;44.802;10.332;2023-03-26T06:33:34;100426.13;;;13.04;59.63
78121;BME280;67585;44.802;10.332;2023-03-26T06:36:00;100419.06;;;13.08;60.24
78121;BME280;67585;44.802;10.332;2023-03-26T06:38:25;100414.34;;;12.85;60.75
78121;BME280;67585;44.802;10.332;2023-03-26T06:40:51;100407.31;;;12.83;61.13
78121;BME280;67585;44.802;10.332;2023-03-26T06:43:16;100414.41;;;12.69;61.52
78121;BME280;67585;44.802;10.332;2023-03-26T06:45:42;100424.53;;;12.98;60.93
78121;BME280;67585;44.802;10.332;2023-03-26T06:48:07;100419.31;;;13.12;59.66
78121;BME280;67585;44.802;10.332;2023-03-26T06:50:33;100416.03;;;13.59;59.33
78121;BME280;67585;44.802;10.332;2023-03-26T06:52:59;100424.16;;;13.54;58.81
78121;BME280;67585;44.802;10.332;2023-03-26T06:55:25;100425.31;;;13.77;57.82
78121;BME280;67585;44.802;10.332;2023-03-26T06:57:51;100429.78;;;13.92;57.86
78121;BME280;67585;44.802;10.332;2023-03-26T07:00:18;100426.81;;;13.94;57.67
78121;BME280;67585;44.802;10.332;2023-03-26T07:02:43;100423.69;;;14.29;56.92
78121;BME280;67585;44.802;10.332;2023-03-26T07:05:09;100424.28;;;14.26;57.09
78121;BME280;67585;44.802;10.332;2023-03-26T07:07:34;100431.53;;;14.31;56.73
78121;BME280;67585;44.802;10.332;2023-03-26T07:10:00;100424.00;;;14.28;57.22
78121;BME280;67585;44.802;10.332;2023-03-26T07:12:25;100435.00;;;14.13;57.85
78121;BME280;67585;44.802;10.332;2023-03-26T07:14:51;100432.63;;;14.06;57.68
78121;BME280;67585;44.802;10.332;2023-03-26T07:17:16;100420.97;;;14.29;57.06
78121;BME280;67585;44.802;10.332;2023-03-26T07:19:42;100418.31;;;14.48;56.73
78121;BME280;67585;44.802;10.332;2023-03-26T07:22:20;100422.22;;;14.42;57.02
78121;BME280;67585;44.802;10.332;2023-03-26T07:24:46;100423.28;;;14.17;58.30
78121;BME280;67585;44.802;10.332;2023-03-26T07:30:08;100398.94;;;13.88;59.00
78121;BME280;67585;44.802;10.332;2023-03-26T07:32:48;100396.91;;;14.04;58.92
78121;BME280;67585;44.802;10.332;2023-03-26T07:35:40;100392.47;;;13.89;59.24
78121;BME280;67585;44.802;10.332;2023-03-26T07:40:58;100403.09;;;13.51;60.13
78121;BME280;67585;44.802;10.332;2023-03-26T07:46:11;100395.88;;;13.71;59.47
78121;BME280;67585;44.802;10.332;2023-03-26T07:48:42;100401.38;;;12.81;62.21
78121;BME280;67585;44.802;10.332;2023-03-26T07:51:09;100399.63;;;13.06;62.13
78121;BME280;67585;44.802;10.332;2023-03-26T07:53:35;100388.06;;;13.35;60.75
78121;BME280;67585;44.802;10.332;2023-03-26T07:56:15;100394.81;;;13.37;60.15
78121;BME280;67585;44.802;10.332;2023-03-26T08:01:16;100382.06;;;13.72;59.01
78121;BME280;67585;44.802;10.332;2023-03-26T08:06:22;100368.97;;;14.51;56.23
78121;BME280;67585;44.802;10.332;2023-03-26T08:08:52;100385.88;;;14.43;57.65
78121;BME280;67585;44.802;10.332;2023-03-26T08:11:33;100388.19;;;14.55;57.62
78121;BME280;67585;44.802;10.332;2023-03-26T08:22:32;100364.59;;;13.59;60.93
78121;BME280;67585;44.802;10.332;2023-03-26T08:27:38;100357.69;;;14.44;59.20
78121;BME280;67585;44.802;10.332;2023-03-26T08:32:32;100336.06;;;14.39;59.93
78121;BME280;67585;44.802;10.332;2023-03-26T08:34:58;100339.34;;;14.60;59.37
78121;BME280;67585;44.802;10.332;2023-03-26T08:37:24;100337.72;;;14.59;59.84
78121;BME280;67585;44.802;10.332;2023-03-26T08:39:51;100347.06;;;14.48;60.62
78121;BME280;67585;44.802;10.332;2023-03-26T08:42:34;100349.69;;;14.53;60.61
78121;BME280;67585;44.802;10.332;2023-03-26T08:48:13;100357.03;;;15.09;58.60
78121;BME280;67585;44.802;10.332;2023-03-26T08:56:29;100315.88;;;14.88;59.04
78121;BME280;67585;44.802;10.332;2023-03-26T09:04:43;100323.28;;;15.34;58.00
78121;BME280;67585;44.802;10.332;2023-03-26T09:09:59;100318.72;;;14.97;59.10
78121;BME280;67585;44.802;10.332;2023-03-26T09:21:47;100299.34;;;15.36;58.37
78121;BME280;67585;44.802;10.332;2023-03-26T09:27:26;100295.34;;;15.62;57.20
78121;BME280;67585;44.802;10.332;2023-03-26T09:37:58;100276.88;;;15.77;56.24
78121;BME280;67585;44.802;10.332;2023-03-26T09:40:42;100288.22;;;16.21;54.61
78121;BME280;67585;44.802;10.332;2023-03-26T09:43:27;100283.78;;;16.25;54.42
78121;BME280;67585;44.802;10.332;2023-03-26T09:54:09;100272.09;;;16.24;55.41
78121;BME280;67585;44.802;10.332;2023-03-26T10:18:20;100227.88;;;16.33;55.00
78121;BME280;67585;44.802;10.332;2023-03-26T10:40:04;100181.41;;;17.68;51.63
78121;BME280;67585;44.802;10.332;2023-03-26T10:48:26;100170.03;;;17.66;50.69
78121;BME280;67585;44.802;10.332;2023-03-26T10:53:46;100165.72;;;17.73;51.35
78121;BME280;67585;44.802;10.332;2023-03-26T10:58:56;100157.81;;;17.46;51.42
78121;BME280;67585;44.802;10.332;2023-03-26T11:01:49;100151.81;;;18.36;48.60
78121;BME280;67585;44.802;10.332;2023-03-26T11:04:34;100160.28;;;18.52;49.27
78121;BME280;67585;44.802;10.332;2023-03-26T11:07:39;100173.09;;;18.69;47.11
78121;BME280;67585;44.802;10.332;2023-03-26T11:19:08;100154.88;;;19.67;42.14
78121;BME280;67585;44.802;10.332;2023-03-26T11:21:47;100129.81;;;19.65;43.19
78121;BME280;67585;44.802;10.332;2023-03-26T11:32:41;100127.78;;;20.58;38.50
78121;BME280;67585;44.802;10.332;2023-03-26T11:35:20;100120.53;;;20.87;38.96
78121;BME280;67585;44.802;10.332;2023-03-26T11:37:53;100124.13;;;19.79;41.71
78121;BME280;67585;44.802;10.332;2023-03-26T11:40:29;100125.16;;;19.45;42.83
78121;BME280;67585;44.802;10.332;2023-03-26T11:43:01;100128.41;;;19.89;41.80
78121;BME280;67585;44.802;10.332;2023-03-26T11:45:31;100122.84;;;19.97;41.07
78121;BME280;67585;44.802;10.332;2023-03-26T11:48:07;100123.00;;;20.55;40.83
78121;BME280;67585;44.802;10.332;2023-03-26T11:50:40;100106.75;;;21.20;39.17
78121;BME280;67585;44.802;10.332;2023-03-26T11:53:28;100101.38;;;20.99;39.63
78121;BME280;67585;44.802;10.332;2023-03-26T11:56:03;100104.88;;;19.96;41.23
78121;BME280;67585;44.802;10.332;2023-03-26T11:58:39;100102.94;;;19.76;42.10
78121;BME280;67585;44.802;10.332;2023-03-26T12:03:34;100077.72;;;19.91;40.85
78121;BME280;67585;44.802;10.332;2023-03-26T12:06:02;100069.16;;;19.51;42.03
78121;BME280;67585;44.802;10.332;2023-03-26T12:08:38;100065.88;;;19.36;42.08
78121;BME280;67585;44.802;10.332;2023-03-26T12:11:08;100065.63;;;19.29;42.10
78121;BME280;67585;44.802;10.332;2023-03-26T12:13:50;100066.59;;;19.54;41.15
78121;BME280;67585;44.802;10.332;2023-03-26T12:16:19;100056.88;;;19.15;41.97
78121;BME280;67585;44.802;10.332;2023-03-26T12:18:56;100038.50;;;19.24;41.22
78121;BME280;67585;44.802;10.332;2023-03-26T12:21:22;100028.72;;;19.44;41.04
78121;BME280;67585;44.802;10.332;2023-03-26T12:24:02;100023.88;;;18.99;42.18
78121;BME280;67585;44.802;10.332;2023-03-26T12:26:38;100029.63;;;19.06;41.93
78121;BME280;67585;44.802;10.332;2023-03-26T12:29:09;100010.63;;;18.89;41.94
78121;BME280;67585;44.802;10.332;2023-03-26T12:32:06;100001.34;;;19.11;41.72
78121;BME280;67585;44.802;10.332;2023-03-26T12:34:37;99994.34;;;19.22;42.17
78121;BME280;67585;44.802;10.332;2023-03-26T12:37:05;99998.06;;;19.17;41.72
78121;BME280;67585;44.802;10.332;2023-03-26T12:39:41;99993.00;;;19.07;42.62
78121;BME280;67585;44.802;10.332;2023-03-26T12:42:38;99985.28;;;19.09;42.25
78121;BME280;67585;44.802;10.332;2023-03-26T12:45:05;99969.44;;;19.24;41.76
78121;BME280;67585;44.802;10.332;2023-03-26T12:47:31;99966.56;;;18.99;42.62
78121;BME280;67585;44.802;10.332;2023-03-26T12:49:57;99957.88;;;18.76;42.51
78121;BME280;67585;44.802;10.332;2023-03-26T13:00:55;99970.56;;;18.33;43.06
78121;BME280;67585;44.802;10.332;2023-03-26T13:11:23;99937.38;;;18.31;43.48
78121;BME280;67585;44.802;10.332;2023-03-26T13:14:31;99941.84;;;18.36;43.39
78121;BME280;67585;44.802;10.332;2023-03-26T13:19:38;99916.41;;;18.23;44.95
78121;BME280;67585;44.802;10.332;2023-03-26T13:31:09;99882.44;;;18.21;45.40
78121;BME280;67585;44.802;10.332;2023-03-26T13:38:57;99900.03;;;17.85;46.08
78121;BME280;67585;44.802;10.332;2023-03-26T13:47:13;99895.84;;;17.79;46.27
78121;BME280;67585;44.802;10.332;2023-03-26T13:49:44;99880.13;;;17.93;45.77
78121;BME280;67585;44.802;10.332;2023-03-26T13:52:20;99870.06;;;17.85;46.31
78121;BME280;67585;44.802;10.332;2023-03-26T13:55:15;99857.66;;;17.96;45.85
78121;BME280;67585;44.802;10.332;2023-03-26T13:57:47;99839.16;;;17.72;46.58
78121;BME280;67585;44.802;10.332;2023-03-26T14:06:07;99811.03;;;17.42;47.20
78121;BME280;67585;44.802;10.332;2023-03-26T14:08:42;99796.94;;;17.40;47.62
78121;BME280;67585;44.802;10.332;2023-03-26T14:33:41;99774.38;;;17.39;47.62
78121;BME280;67585;44.802;10.332;2023-03-26T14:36:33;99758.69;;;17.36;48.18
78121;BME280;67585;44.802;10.332;2023-03-26T14:41:52;99749.63;;;17.15;48.37
78121;BME280;67585;44.802;10.332;2023-03-26T14:47:17;99745.78;;;17.16;48.30
78121;BME280;67585;44.802;10.332;2023-03-26T14:55:01;99723.75;;;17.00;49.25
78121;BME280;67585;44.802;10.332;2023-03-26T15:11:12;99707.91;;;16.93;50.35
78121;BME280;67585;44.802;10.332;2023-03-26T15:42:10;99802.72;;;15.36;67.93
78121;BME280;67585;44.802;10.332;2023-03-26T15:45:36;99796.53;;;14.55;70.66
78121;BME280;67585;44.802;10.332;2023-03-26T15:53:14;99740.91;;;14.43;70.94
78121;BME280;67585;44.802;10.332;2023-03-26T15:56:04;99759.63;;;14.67;70.88
78121;BME280;67585;44.802;10.332;2023-03-26T15:58:58;99758.22;;;14.33;72.15
78121;BME280;67585;44.802;10.332;2023-03-26T16:07:09;99756.06;;;13.66;74.75
78121;BME280;67585;44.802;10.332;2023-03-26T16:09:55;99775.94;;;14.03;76.03
78121;BME280;67585;44.802;10.332;2023-03-26T16:12:31;99781.31;;;14.17;74.76
78121;BME280;67585;44.802;10.332;2023-03-26T16:20:44;99779.50;;;14.26;70.82
78121;BME280;67585;44.802;10.332;2023-03-26T16:23:28;99790.38;;;13.71;72.99
78121;BME280;67585;44.802;10.332;2023-03-26T16:36:34;99802.19;;;13.61;73.31
78121;BME280;67585;44.802;10.332;2023-03-26T16:41:30;99813.44;;;13.82;71.49
78121;BME280;67585;44.802;10.332;2023-03-26T16:49:40;99778.75;;;12.91;74.24
78121;BME280;67585;44.802;10.332;2023-03-26T16:52:22;99780.38;;;12.92;74.00
78121;BME280;67585;44.802;10.332;2023-03-26T17:05:16;99785.84;;;13.20;72.80
78121;BME280;67585;44.802;10.332;2023-03-26T17:07:56;99787.44;;;13.54;72.32
78121;BME280;67585;44.802;10.332;2023-03-26T17:10:34;99777.63;;;13.11;73.47
78121;BME280;67585;44.802;10.332;2023-03-26T17:13:13;99778.16;;;13.13;74.56
78121;BME280;67585;44.802;10.332;2023-03-26T17:22:36;99767.75;;;12.88;74.49
78121;BME280;67585;44.802;10.332;2023-03-26T17:35:44;99631.16;;;11.73;77.11
78121;BME280;67585;44.802;10.332;2023-03-26T17:43:12;99645.50;;;12.44;75.49
78121;BME280;67585;44.802;10.332;2023-03-26T17:45:56;99639.84;;;11.89;77.58
78121;BME280;67585;44.802;10.332;2023-03-26T17:48:22;99609.38;;;11.88;79.45
78121;BME280;67585;44.802;10.332;2023-03-26T17:50:56;99617.22;;;11.85;79.21
78121;BME280;67585;44.802;10.332;2023-03-26T17:53:27;99659.63;;;12.22;77.34
78121;BME280;67585;44.802;10.332;2023-03-26T17:55:54;99708.88;;;12.14;78.26
78121;BME280;67585;44.802;10.332;2023-03-26T17:58:43;99677.56;;;12.13;75.71
78121;BME280;67585;44.802;10.332;2023-03-26T18:01:22;99720.53;;;11.90;78.14
78121;BME280;67585;44.802;10.332;2023-03-26T18:03:52;99721.16;;;11.82;79.46
78121;BME280;67585;44.802;10.332;2023-03-26T18:07:25;99712.09;;;11.73;78.63
78121;BME280;67585;44.802;10.332;2023-03-26T18:12:04;99730.19;;;12.53;75.19
78121;BME280;67585;44.802;10.332;2023-03-26T18:14:53;99721.88;;;12.12;75.86
78121;BME280;67585;44.802;10.332;2023-03-26T18:17:23;99711.84;;;11.93;77.02
78121;BME280;67585;44.802;10.332;2023-03-26T18:19:54;99735.94;;;12.28;75.63
78121;BME280;67585;44.802;10.332;2023-03-26T18:22:28;99697.72;;;12.02;75.04
78121;BME280;67585;44.802;10.332;2023-03-26T18:25:01;99713.63;;;11.79;74.83
78121;BME280;67585;44.802;10.332;2023-03-26T18:27:39;99715.66;;;11.68;74.70
78121;BME280;67585;44.802;10.332;2023-03-26T18:30:22;99714.94;;;11.58;75.10
78121;BME280;67585;44.802;10.332;2023-03-26T18:35:26;99718.34;;;12.30;71.75
78121;BME280;67585;44.802;10.332;2023-03-26T18:37:59;99711.94;;;12.07;72.67
78121;BME280;67585;44.802;10.332;2023-03-26T18:40:33;99709.03;;;12.23;72.05
78121;BME280;67585;44.802;10.332;2023-03-26T18:43:04;99723.13;;;12.38;72.20
78121;BME280;67585;44.802;10.332;2023-03-26T18:45:32;99718.72;;;12.43;70.72
78121;BME280;67585;44.802;10.332;2023-03-26T18:48:09;99696.19;;;12.14;71.77
78121;BME280;67585;44.802;10.332;2023-03-26T18:50:41;99701.88;;;12.13;72.66
78121;BME280;67585;44.802;10.332;2023-03-26T18:53:14;99685.06;;;12.35;73.13
78121;BME280;67585;44.802;10.332;2023-03-26T18:55:42;99685.59;;;12.18;73.39